Flight Track Log - Related Links

Times and Time Zones

All times are in EDT time to prevent confusion due to time zone crossing. See the ASQ6185 flight status page for this flight to view local times or setup timezone preferences in your user account.

Time Position Orientation Groundspeed Altitude Reporting Facility
EDT Latitude Longitude Course Direction KTS MPH feet Rate Location/Type
Mon 11:15:53 AM 39.8500 -104.7833 North 212 244 7,600  Level Denver TRACON
Mon 11:16:53 AM 39.9000 -104.8667 308° West 243 280 9,700 2,127 Climbing Denver TRACON
Mon 11:17:12 AM 39.9031 -104.8875 281° West 242 278 10,400 1,481 Climbing Denver Center
Mon 11:18:14 AM 39.9644 -104.9436 325° Northwest 278 320 11,700 1,403 Climbing Denver Center
Mon 11:19:16 AM 40.0486 -104.9447 359° North 305 351 13,300 1,597 Climbing Denver Center
Mon 11:20:18 AM 40.1394 -104.8867 26° Northeast 349 402 15,000 1,548 Climbing Denver Center
Mon 11:21:00 AM 40.2904 -104.5000 North  Level FlightAware Approximate
Mon 11:21:20 AM 40.2175 -104.8003 40° Northeast 366 421 16,500  Level Denver Center
Mon 11:22:22 AM 40.2942 -104.6842 49° Northeast 391 450 17,800 1,403 Climbing Denver Center
Mon 11:23:24 AM 40.3636 -104.5725 51° Northeast 395 455 19,400 1,597 Climbing Denver Center
Mon 11:24:26 AM 40.4356 -104.4608 50° Northeast 400 460 21,100 1,839 Climbing Denver Center
Mon 11:25:28 AM 40.5103 -104.3453 50° Northeast 386 444 23,200 1,984 Climbing Denver Center
Mon 11:26:30 AM 40.5786 -104.2350 51° Northeast 392 451 25,200 2,032 Climbing Denver Center
Mon 11:27:32 AM 40.6583 -104.1350 44° Northeast 372 428 27,400 1,887 Climbing Denver Center
Mon 11:28:34 AM 40.7283 -104.0450 44° Northeast 351 404 29,100 1,355 Climbing Denver Center
Mon 11:29:36 AM 40.7989 -103.9503 45° Northeast 374 430 30,200 823 Climbing Denver Center
Mon 11:30:38 AM 40.8856 -103.8417 43° Northeast 384 442 30,800 387 Climbing Denver Center
Mon 11:31:40 AM 40.9533 -103.7222 53° Northeast 418 481 31,000 97 Climbing Denver Center
Mon 11:32:42 AM 41.0211 -103.5631 61° Northeast 440 506 31,000  Level Denver Center
Mon 11:33:44 AM 41.0808 -103.4267 60° Northeast 446 513 31,000  Level Denver Center
Mon 11:34:46 AM 41.1497 -103.2675 60° Northeast 447 514 31,000  Level Denver Center
Mon 11:35:48 AM 41.2083 -103.1308 60° Northeast 446 513 31,000  Level Denver Center
Mon 11:36:50 AM 41.2764 -102.9719 60° Northeast 445 512 31,000  Level Denver Center
Mon 11:37:52 AM 41.3347 -102.8328 61° Northeast 450 518 31,000  Level Denver Center
Mon 11:38:54 AM 41.4028 -102.6719 61° Northeast 449 517 31,000  Level Denver Center
Mon 11:39:56 AM 41.4647 -102.5264 60° Northeast 448 516 31,000  Level Denver Center
Mon 11:40:59 AM 41.5239 -102.3861 61° Northeast 452 520 31,000  Level Denver Center
Mon 11:42:01 AM 41.5922 -102.2217 61° Northeast 452 520 31,000  Level Denver Center
Mon 11:43:03 AM 41.6506 -102.0817 61° Northeast 451 519 31,000  Level Denver Center
Mon 11:44:05 AM 41.7172 -101.9178 61° Northeast 448 516 31,000  Level Denver Center
Mon 11:45:07 AM 41.7761 -101.7767 61° Northeast 451 519 31,000  Level Denver Center
Mon 11:46:09 AM 41.8417 -101.6133 62° Northeast 447 514 31,000  Level Denver Center
Mon 11:47:11 AM 41.9011 -101.4719 61° Northeast 451 519 31,000  Level Denver Center
Mon 11:48:13 AM 41.9669 -101.3067 62° Northeast 450 518 31,000  Level Denver Center
Mon 11:49:15 AM 42.0225 -101.1647 62° Northeast 448 516 31,000  Level Denver Center
Mon 11:50:17 AM 42.0889 -100.9997 61° Northeast 448 516 31,000  Level Denver Center
Mon 11:51:19 AM 42.1461 -100.8575 61° Northeast 449 517 31,000  Level Denver Center
Mon 11:52:21 AM 42.2019 -100.7153 62° Northeast 448 516 31,000  Level Denver Center
Mon 11:53:23 AM 42.2664 -100.5500 62° Northeast 447 514 31,000  Level Denver Center
Mon 11:54:25 AM 42.3228 -100.4078 62° Northeast 447 514 31,000  Level Denver Center
Mon 11:54:40 AM 42.3408 -100.3583 64° Northeast 444 511 31,000  Level Minneapolis Center
Mon 11:55:27 AM 42.3878 -100.2400 62° Northeast 449 517 31,000  Level Denver Center
Mon 11:56:29 AM 42.4431 -100.0956 63° Northeast 451 519 31,000  Level Denver Center
Mon 11:57:31 AM 42.5039 -99.9378 62° Northeast 446 513 31,000  Level Denver Center
Mon 11:58:33 AM 42.5625 -99.7847 62° Northeast 451 519 31,000  Level Denver Center
Mon 11:59:35 AM 42.6192 -99.6347 63° Northeast 449 517 31,000  Level Denver Center
Mon 12:00:37 PM 42.6853 -99.4594 63° Northeast 449 517 31,000  Level Denver Center
Mon 12:01:39 PM 42.7417 -99.3092 63° Northeast 447 514 31,000  Level Denver Center
Mon 12:02:41 PM 42.8022 -99.1478 63° Northeast 454 522 31,000  Level Denver Center
Mon 12:03:43 PM 42.8586 -98.9944 63° Northeast 452 520 31,000 -529 Level Denver Center
Mon 12:04:57 PM 42.9225 -98.8275 62° Northeast 446 513 29,800 -882 Descending Minneapolis Center
Mon 12:05:59 PM 42.9653 -98.7081 64° Northeast 440 506 29,000 -1,210 Descending Minneapolis Center
Mon 12:07:01 PM 43.0439 -98.4958 63° Northeast 448 516 27,300 -1,403 Descending Minneapolis Center
Mon 12:08:03 PM 43.1008 -98.3389 64° Northeast 458 527 26,100 -1,171 Descending Minneapolis Center
Mon 12:09:04 PM 43.1561 -98.1817 64° Northeast 461 531 24,900 -1,268 Descending Minneapolis Center
Mon 12:10:06 PM 43.2108 -98.0300 64° Northeast 450 518 23,500 -1,403 Descending Minneapolis Center
Mon 12:11:08 PM 43.2633 -97.8836 64° Northeast 431 496 22,000 -1,512 Descending Minneapolis Center
Mon 12:12:09 PM 43.3167 -97.7392 63° Northeast 428 493 20,400 -1,561 Descending Minneapolis Center
Mon 12:13:11 PM 43.3781 -97.5639 64° Northeast 427 491 18,800 -1,597 Descending Minneapolis Center
Mon 12:14:13 PM 43.4256 -97.4261 65° Northeast 404 465 17,100 -1,790 Descending Minneapolis Center
Mon 12:15:15 PM 43.4694 -97.3039 64° Northeast 367 422 15,100 -1,951 Descending Minneapolis Center
Mon 12:16:16 PM 43.5078 -97.1875 66° East 345 397 13,100 -2,000 Descending Minneapolis Center
Mon 12:17:18 PM 43.5478 -97.0772 63° Northeast 333 383 11,000 -1,984 Descending Minneapolis Center
Mon 12:18:20 PM 43.5928 -96.9806 57° Northeast 318 366 9,000 -1,887 Descending Minneapolis Center
Mon 12:19:22 PM 43.6406 -96.9094 47° Northeast 280 322 7,100 -2,129 Descending Minneapolis Center
Mon 12:20:24 PM 43.6664 -96.8281 66° East 238 274 4,600 -1,984 Descending Minneapolis Center
Mon 12:21:26 PM 43.6356 -96.7792 131° Southeast 194 223 3,000 -1,317 Descending Minneapolis Center
Mon 12:22:27 PM 43.5986 -96.7450 146° Southeast 171 197 1,900 -1,082 Descending Minneapolis Center
Mon 12:24:00 PM 43.5820 -96.7419 160° South  Level Estimated
Mon 12:31:00 PM 43.5820 -96.7419 160° South  Level Estimated

Login

Don't have an account? Register now (free) for customized features, flight alerts, and more!